New Creek, West Virginia
Current Conditions -  °F | °C
As of 3:00 PM on Saturday 25 Oct 2014 (Local Time) from K2G4 Reporting Station
Clear Clear  
Wind Chill: 55°   Ceiling: Unl
Heat Index: 55°   Visibility: 10mi
Dew Point: 43°   Wind: 14mph
Humidity: 63%   Direction: 250°WSW
Pressure: 29.87"   Gusts: 21mph
Location:  39.37°N, 79.03°W
Report Text: K2G4 251900Z AUTO 25012G18KT 10SM CLR 13/06 A2987 RMK AO1
Loading
Personal Weather Stations






























Interactive Weather Map
Tropical Storm Tracking
New forecast layout! Learn more

10-Day Weather Forecast

Advertisements
Track Severe Weather on mobile